Time;durP1;ratioP1;P1;durP2;ratioP2;P2;SDS_P1;SDS_P2;PMS_P1;PMS_P2;Temp;Humidity;BMP_temperature;BMP_pressure;BME280_temperature;BME280_humidity;BME280_pressure;Samples;Min_cycle;Max_cycle;Signal;HPM_P1;HPM_P2
2021/11/05 00:00:17;;;;;;;10.00;5.47;;;;;;;;;;6179749;23;20366;-64
2021/11/05 00:02:42;;;;;;;8.02;5.55;;;;;;;;;;6178129;23;20068;-64
2021/11/05 00:05:08;;;;;;;7.35;4.97;;;;;;;;;;6176016;23;20005;-64
2021/11/05 00:07:34;;;;;;;7.47;5.07;;;;;;;;;;6177293;23;20001;-64
2021/11/05 00:09:59;;;;;;;7.47;5.20;;;;;;;;;;6179633;23;20008;-64
2021/11/05 00:12:25;;;;;;;7.53;4.90;;;;;;;;;;6151910;23;20040;-64
2021/11/05 00:14:50;;;;;;;8.15;5.05;;;;;;;;;;6178169;23;20009;-64
2021/11/05 00:17:16;;;;;;;7.85;5.13;;;;;;;;;;6178981;23;20018;-64
2021/11/05 00:19:41;;;;;;;7.68;5.18;;;;;;;;;;6152139;23;20059;-64
2021/11/05 00:22:06;;;;;;;7.50;5.20;;;;;;;;;;6179780;23;20012;-64
2021/11/05 00:24:32;;;;;;;7.35;5.00;;;;;;;;;;6179342;23;20011;-64
2021/11/05 00:26:57;;;;;;;8.85;5.10;;;;;;;;;;6179484;23;20092;-64
2021/11/05 00:29:23;;;;;;;10.05;5.07;;;;;;;;;;6179611;23;20008;-64
2021/11/05 00:31:48;;;;;;;9.13;5.70;;;;;;;;;;6180094;23;20020;-65
2021/11/05 00:34:17;;;;;;;8.50;5.10;;;;;;;;;;6178937;23;20214;-64
2021/11/05 00:36:44;;;;;;;7.78;5.15;;;;;;;;;;6180386;23;20080;-65
2021/11/05 00:39:10;;;;;;;8.80;5.18;;;;;;;;;;6177088;23;20020;-64
2021/11/05 00:41:35;;;;;;;7.35;5.10;;;;;;;;;;6179024;23;20357;-64
2021/11/05 00:44:00;;;;;;;8.43;5.38;;;;;;;;;;6151311;23;20009;-64
2021/11/05 00:46:26;;;;;;;9.63;5.40;;;;;;;;;;6154906;23;20084;-64
2021/11/05 00:48:51;;;;;;;13.18;5.60;;;;;;;;;;6178859;23;20019;-65
2021/11/05 00:51:17;;;;;;;10.68;5.80;;;;;;;;;;6175070;23;20001;-64
2021/11/05 00:53:42;;;;;;;9.50;6.07;;;;;;;;;;6177816;23;20012;-64
2021/11/05 00:56:07;;;;;;;9.48;5.85;;;;;;;;;;6178197;23;20009;-64
2021/11/05 00:58:33;;;;;;;11.00;6.45;;;;;;;;;;6180260;23;20323;-64
2021/11/05 01:00:58;;;;;;;10.82;6.35;;;;;;;;;;6179054;23;20760;-64
2021/11/05 01:03:23;;;;;;;11.60;6.35;;;;;;;;;;6178381;23;20754;-64
2021/11/05 01:05:49;;;;;;;12.82;6.45;;;;;;;;;;6156151;23;20015;-64
2021/11/05 01:08:14;;;;;;;9.98;6.03;;;;;;;;;;6182295;23;20005;-64
2021/11/05 01:10:39;;;;;;;9.10;5.65;;;;;;;;;;6151106;23;20001;-64
2021/11/05 01:13:06;;;;;;;8.70;5.80;;;;;;;;;;6178238;23;20067;-64
2021/11/05 01:15:33;;;;;;;9.50;6.00;;;;;;;;;;6154558;23;20036;-64
2021/11/05 01:17:59;;;;;;;9.45;6.50;;;;;;;;;;6177055;23;20012;-64
2021/11/05 01:20:25;;;;;;;9.32;6.47;;;;;;;;;;6179954;23;20028;-64
2021/11/05 01:22:51;;;;;;;10.30;6.50;;;;;;;;;;6155213;23;20032;-65
2021/11/05 01:25:16;;;;;;;11.27;6.93;;;;;;;;;;6182707;23;20020;-65
2021/11/05 01:27:43;;;;;;;9.95;6.45;;;;;;;;;;6157124;23;20005;-65
2021/11/05 01:30:10;;;;;;;11.15;7.00;;;;;;;;;;6180753;23;20451;-64
2021/11/05 01:32:35;;;;;;;10.38;6.60;;;;;;;;;;6180752;23;20029;-64
2021/11/05 01:35:03;;;;;;;11.63;7.30;;;;;;;;;;6179024;23;20096;-64
2021/11/05 01:37:30;;;;;;;11.63;7.18;;;;;;;;;;6182815;23;20063;-64
2021/11/05 01:39:55;;;;;;;11.95;7.30;;;;;;;;;;6181642;23;20332;-64
2021/11/05 01:42:21;;;;;;;12.20;7.35;;;;;;;;;;6179780;23;20082;-64
2021/11/05 01:44:46;;;;;;;12.55;7.18;;;;;;;;;;6178337;23;20001;-64
2021/11/05 01:47:12;;;;;;;12.27;7.60;;;;;;;;;;6178977;23;20055;-64
2021/11/05 01:49:37;;;;;;;10.50;6.90;;;;;;;;;;6179026;23;20066;-64
2021/11/05 01:52:03;;;;;;;11.80;7.18;;;;;;;;;;6156188;23;20080;-64
2021/11/05 01:54:28;;;;;;;13.23;8.13;;;;;;;;;;6182291;23;20001;-65
2021/11/05 01:56:54;;;;;;;11.45;8.10;;;;;;;;;;6182773;23;20462;-64
2021/11/05 01:59:27;;;;;;;12.02;8.43;;;;;;;;;;6180414;23;20087;-64
2021/11/05 02:01:54;;;;;;;13.95;8.55;;;;;;;;;;6182268;23;20005;-64
2021/11/05 02:04:20;;;;;;;12.68;8.27;;;;;;;;;;6153021;23;20315;-64
2021/11/05 02:06:48;;;;;;;12.68;8.52;;;;;;;;;;6156513;23;20020;-64
2021/11/05 02:09:17;;;;;;;11.70;8.35;;;;;;;;;;6155654;23;20454;-64
2021/11/05 02:11:45;;;;;;;16.35;9.07;;;;;;;;;;6154048;23;20374;-64
2021/11/05 02:14:16;;;;;;;15.82;8.68;;;;;;;;;;6178261;23;20005;-64
2021/11/05 02:16:45;;;;;;;13.00;8.48;;;;;;;;;;6153620;23;20486;-64
2021/11/05 02:19:13;;;;;;;18.40;11.73;;;;;;;;;;6178552;23;20001;-64
2021/11/05 02:21:41;;;;;;;16.92;10.32;;;;;;;;;;6184280;23;20163;-64
2021/11/05 02:24:07;;;;;;;15.13;9.90;;;;;;;;;;6155884;23;20009;-64
2021/11/05 02:26:32;;;;;;;16.40;9.93;;;;;;;;;;6183511;23;20007;-64
2021/11/05 02:28:57;;;;;;;16.85;9.10;;;;;;;;;;6180666;23;20005;-64
2021/11/05 02:31:23;;;;;;;18.02;10.13;;;;;;;;;;6178815;23;19997;-65
2021/11/05 02:33:48;;;;;;;18.15;10.38;;;;;;;;;;6149976;23;20013;-64
2021/11/05 02:36:14;;;;;;;21.48;11.93;;;;;;;;;;6151045;23;20013;-64
2021/11/05 02:38:39;;;;;;;23.65;12.70;;;;;;;;;;6148450;23;20017;-64
2021/11/05 02:41:04;;;;;;;16.98;10.45;;;;;;;;;;6149936;23;20438;-64
2021/11/05 02:43:30;;;;;;;16.98;10.10;;;;;;;;;;6121832;23;20002;-65
2021/11/05 02:45:56;;;;;;;17.60;10.25;;;;;;;;;;6152026;23;20005;-64
2021/11/05 02:48:21;;;;;;;17.10;10.10;;;;;;;;;;6147425;23;20076;-64
2021/11/05 02:50:47;;;;;;;15.60;10.45;;;;;;;;;;6149531;23;20072;-64
2021/11/05 02:53:13;;;;;;;36.50;24.35;;;;;;;;;;6149377;23;20085;-64
2021/11/05 02:55:38;;;;;;;36.90;26.35;;;;;;;;;;6151115;23;20036;-64
2021/11/05 02:58:05;;;;;;;24.65;14.55;;;;;;;;;;6151740;23;20223;-64
2021/11/05 03:00:31;;;;;;;28.60;18.73;;;;;;;;;;6150223;23;20313;-64
2021/11/05 03:02:57;;;;;;;29.05;17.10;;;;;;;;;;6147975;23;20013;-64
2021/11/05 03:05:23;;;;;;;37.10;21.95;;;;;;;;;;6149847;23;20002;-64
2021/11/05 03:07:49;;;;;;;37.80;20.73;;;;;;;;;;6150206;23;20008;-64
2021/11/05 03:10:16;;;;;;;32.42;19.92;;;;;;;;;;6151618;23;20006;-64
2021/11/05 03:12:43;;;;;;;27.17;17.08;;;;;;;;;;6150836;23;20133;-64
2021/11/05 03:15:09;;;;;;;24.73;13.80;;;;;;;;;;6150936;23;20005;-64
2021/11/05 03:17:36;;;;;;;21.15;11.80;;;;;;;;;;6151268;23;20141;-64
2021/11/05 03:20:04;;;;;;;21.50;11.77;;;;;;;;;;6146851;23;20012;-64
2021/11/05 03:22:30;;;;;;;26.02;11.93;;;;;;;;;;6149829;23;20008;-64
2021/11/05 03:24:55;;;;;;;22.25;12.32;;;;;;;;;;6149258;23;20002;-64
2021/11/05 03:27:20;;;;;;;25.10;12.63;;;;;;;;;;6122626;23;20467;-64
2021/11/05 03:29:46;;;;;;;23.85;12.82;;;;;;;;;;6148066;23;20005;-64
2021/11/05 03:32:11;;;;;;;23.10;12.02;;;;;;;;;;6159188;23;20017;-64
2021/11/05 03:34:37;;;;;;;19.98;11.30;;;;;;;;;;6177554;23;20016;-64
2021/11/05 03:37:04;;;;;;;24.35;12.80;;;;;;;;;;6179740;23;20028;-64
2021/11/05 03:39:30;;;;;;;27.40;13.93;;;;;;;;;;6152531;23;20000;-64
2021/11/05 03:41:56;;;;;;;23.80;13.98;;;;;;;;;;6179729;23;20036;-64
2021/11/05 03:44:21;;;;;;;24.63;13.25;;;;;;;;;;6179845;23;20084;-64
2021/11/05 03:46:47;;;;;;;20.85;12.95;;;;;;;;;;6183253;23;20008;-64
2021/11/05 03:49:13;;;;;;;24.65;13.00;;;;;;;;;;6179702;23;20064;-64
2021/11/05 03:51:38;;;;;;;20.02;12.23;;;;;;;;;;6177960;23;20001;-64
2021/11/05 03:54:06;;;;;;;18.85;10.77;;;;;;;;;;6179159;23;20059;-65
2021/11/05 03:56:32;;;;;;;20.67;11.88;;;;;;;;;;6179984;23;20011;-65
2021/11/05 03:58:58;;;;;;;20.73;10.77;;;;;;;;;;6180512;23;20000;-64
2021/11/05 04:01:24;;;;;;;22.70;11.27;;;;;;;;;;6179234;23;20015;-64
2021/11/05 04:03:50;;;;;;;21.90;12.17;;;;;;;;;;6177179;23;20005;-64
2021/11/05 04:06:17;;;;;;;17.55;10.18;;;;;;;;;;6154203;23;20232;-65
2021/11/05 04:08:43;;;;;;;18.45;9.98;;;;;;;;;;6177903;23;20148;-64
2021/11/05 04:11:08;;;;;;;19.20;11.88;;;;;;;;;;6178206;23;20071;-64
2021/11/05 04:13:34;;;;;;;16.75;10.40;;;;;;;;;;6179499;23;20481;-64
2021/11/05 04:16:00;;;;;;;16.90;10.50;;;;;;;;;;6180323;23;20012;-64
2021/11/05 04:18:26;;;;;;;16.73;9.40;;;;;;;;;;6178870;23;20009;-64
2021/11/05 04:20:51;;;;;;;20.20;10.45;;;;;;;;;;6178166;23;20009;-64
2021/11/05 04:23:17;;;;;;;17.60;9.63;;;;;;;;;;6177796;23;20097;-65
2021/11/05 04:25:45;;;;;;;16.08;9.75;;;;;;;;;;6175447;23;20009;-64
2021/11/05 04:28:12;;;;;;;16.23;9.55;;;;;;;;;;6180948;23;20084;-64
2021/11/05 04:30:38;;;;;;;14.30;9.27;;;;;;;;;;6181310;23;20069;-64
2021/11/05 04:33:05;;;;;;;18.67;10.20;;;;;;;;;;6179162;23;20028;-64
2021/11/05 04:35:31;;;;;;;18.23;9.57;;;;;;;;;;6181852;23;20228;-64
2021/11/05 04:37:57;;;;;;;14.85;8.77;;;;;;;;;;6180084;23;20008;-64
2021/11/05 04:40:22;;;;;;;18.02;11.63;;;;;;;;;;6178680;23;20009;-64
2021/11/05 04:42:49;;;;;;;19.27;10.68;;;;;;;;;;6180045;23;20323;-64
2021/11/05 04:45:14;;;;;;;15.43;8.93;;;;;;;;;;6179949;23;20449;-64
2021/11/05 04:47:40;;;;;;;18.30;9.57;;;;;;;;;;6179626;23;20091;-64
2021/11/05 04:50:07;;;;;;;17.00;9.43;;;;;;;;;;6179437;23;20453;-64
2021/11/05 04:52:33;;;;;;;20.42;10.60;;;;;;;;;;6180996;23;20012;-64
2021/11/05 04:54:59;;;;;;;20.05;11.27;;;;;;;;;;6179876;23;20544;-64
2021/11/05 04:57:25;;;;;;;22.40;12.05;;;;;;;;;;6181039;23;20009;-64
2021/11/05 04:59:50;;;;;;;24.42;13.82;;;;;;;;;;6183806;23;20068;-64
2021/11/05 05:02:17;;;;;;;23.58;14.05;;;;;;;;;;6180690;23;20089;-64
2021/11/05 05:04:45;;;;;;;26.17;14.43;;;;;;;;;;6180275;23;20056;-65
2021/11/05 05:07:11;;;;;;;26.25;14.55;;;;;;;;;;6180153;23;20012;-64
2021/11/05 05:09:36;;;;;;;24.20;14.43;;;;;;;;;;6146631;23;20009;-64
2021/11/05 05:12:02;;;;;;;26.80;14.73;;;;;;;;;;6178456;23;20008;-64
2021/11/05 05:14:27;;;;;;;29.90;15.70;;;;;;;;;;6181101;23;20001;-64
2021/11/05 05:16:53;;;;;;;26.65;14.80;;;;;;;;;;6181378;23;20012;-64
2021/11/05 05:19:18;;;;;;;29.85;15.73;;;;;;;;;;6177599;23;20028;-64
2021/11/05 05:21:43;;;;;;;24.38;14.23;;;;;;;;;;6179486;23;20055;-65
2021/11/05 05:24:09;;;;;;;24.42;14.18;;;;;;;;;;6178155;23;20012;-64
2021/11/05 05:26:34;;;;;;;21.92;12.00;;;;;;;;;;6154093;23;20008;-64
2021/11/05 05:29:00;;;;;;;22.48;11.85;;;;;;;;;;6177047;23;20008;-64
2021/11/05 05:31:25;;;;;;;18.02;10.88;;;;;;;;;;6181817;23;20347;-64
2021/11/05 05:33:51;;;;;;;18.15;10.00;;;;;;;;;;6181254;23;20076;-64
2021/11/05 05:36:17;;;;;;;18.00;9.95;;;;;;;;;;6157481;23;20611;-64
2021/11/05 05:38:42;;;;;;;16.52;8.93;;;;;;;;;;6182070;23;20004;-64
2021/11/05 05:41:09;;;;;;;15.35;8.55;;;;;;;;;;6180216;23;20001;-64
2021/11/05 05:43:34;;;;;;;15.25;8.73;;;;;;;;;;6177627;23;20072;-64
2021/11/05 05:46:00;;;;;;;13.05;8.18;;;;;;;;;;6181277;23;20084;-64
2021/11/05 05:48:25;;;;;;;13.43;7.90;;;;;;;;;;6180308;23;20001;-64
2021/11/05 05:50:50;;;;;;;11.63;8.15;;;;;;;;;;6153944;23;20001;-64
2021/11/05 05:53:16;;;;;;;13.50;7.90;;;;;;;;;;6178013;23;20423;-64
2021/11/05 05:55:43;;;;;;;14.20;8.65;;;;;;;;;;6178870;23;20065;-65
2021/11/05 05:58:11;;;;;;;13.48;8.27;;;;;;;;;;6178079;23;20736;-65
2021/11/05 06:00:38;;;;;;;13.23;8.38;;;;;;;;;;6181316;23;20134;-65
2021/11/05 06:03:03;;;;;;;15.88;8.63;;;;;;;;;;6176017;23;20005;-65
2021/11/05 06:05:29;;;;;;;13.93;8.73;;;;;;;;;;6178078;23;20012;-65
2021/11/05 06:08:10;;;;;;;14.30;8.23;;;;;;;;;;6172829;23;20009;-66
2021/11/05 06:10:36;;;;;;;13.82;8.48;;;;;;;;;;6143394;23;20005;-65
2021/11/05 06:13:02;;;;;;;14.65;8.80;;;;;;;;;;6171007;23;20466;-66
2021/11/05 06:15:28;;;;;;;11.93;8.05;;;;;;;;;;6168226;23;20048;-65
2021/11/05 06:17:53;;;;;;;12.20;7.85;;;;;;;;;;6169030;23;20059;-65
2021/11/05 06:20:19;;;;;;;13.77;9.07;;;;;;;;;;6171659;23;20001;-65
2021/11/05 06:22:45;;;;;;;15.15;8.60;;;;;;;;;;6170853;23;20008;-65
2021/11/05 06:25:11;;;;;;;13.27;8.43;;;;;;;;;;6171794;23;20004;-65
2021/11/05 06:27:43;;;;;;;15.45;9.82;;;;;;;;;;6171760;23;20004;-65
2021/11/05 06:30:11;;;;;;;17.13;11.27;;;;;;;;;;6164541;23;19997;-65
2021/11/05 06:32:37;;;;;;;13.82;9.23;;;;;;;;;;6163407;23;20041;-65
2021/11/05 06:35:04;;;;;;;16.17;9.90;;;;;;;;;;6161809;23;20005;-65
2021/11/05 06:37:29;;;;;;;14.93;8.87;;;;;;;;;;6166847;23;20033;-65
2021/11/05 06:39:54;;;;;;;14.27;9.30;;;;;;;;;;6176380;23;20240;-65
2021/11/05 06:42:21;;;;;;;17.08;9.65;;;;;;;;;;6179772;23;20005;-65
2021/11/05 06:44:48;;;;;;;15.63;10.05;;;;;;;;;;6152062;23;20005;-65
2021/11/05 06:47:14;;;;;;;15.63;9.65;;;;;;;;;;6179115;23;20005;-65
2021/11/05 06:49:40;;;;;;;17.35;10.05;;;;;;;;;;6178498;23;20059;-66
2021/11/05 06:52:05;;;;;;;18.63;10.40;;;;;;;;;;6179731;23;20008;-65
2021/11/05 06:54:30;;;;;;;19.25;11.10;;;;;;;;;;6179130;23;20009;-65
2021/11/05 06:56:56;;;;;;;18.23;11.20;;;;;;;;;;6179259;23;20005;-65
2021/11/05 06:59:21;;;;;;;17.13;11.43;;;;;;;;;;6180748;23;20001;-65
2021/11/05 07:01:47;;;;;;;18.58;11.18;;;;;;;;;;6173852;23;20062;-65
2021/11/05 07:04:12;;;;;;;20.65;11.90;;;;;;;;;;6175033;23;20020;-66
2021/11/05 07:06:44;;;;;;;18.13;11.05;;;;;;;;;;6175528;23;20016;-66
2021/11/05 07:09:14;;;;;;;17.13;10.15;;;;;;;;;;6176169;23;20016;-66
2021/11/05 07:11:40;;;;;;;20.77;11.27;;;;;;;;;;6172242;23;20004;-66
2021/11/05 07:14:05;;;;;;;16.90;10.73;;;;;;;;;;6169034;23;20485;-66
2021/11/05 07:16:33;;;;;;;25.95;17.88;;;;;;;;;;6143688;23;20004;-66
2021/11/05 07:18:58;;;;;;;21.55;13.93;;;;;;;;;;6142086;23;20009;-66
2021/11/05 07:21:24;;;;;;;22.38;11.10;;;;;;;;;;6153928;23;20292;-67
2021/11/05 07:23:50;;;;;;;16.73;10.00;;;;;;;;;;6148375;23;20120;-67
2021/11/05 07:26:16;;;;;;;16.95;10.38;;;;;;;;;;6125816;23;20016;-66
2021/11/05 07:28:41;;;;;;;17.08;10.80;;;;;;;;;;6121725;23;20009;-67
2021/11/05 07:31:07;;;;;;;16.75;10.93;;;;;;;;;;6148787;23;20001;-66
2021/11/05 07:33:32;;;;;;;16.63;10.15;;;;;;;;;;6137204;23;20052;-66
2021/11/05 07:35:57;;;;;;;17.25;10.25;;;;;;;;;;6156249;23;20012;-66
2021/11/05 07:38:23;;;;;;;16.92;10.15;;;;;;;;;;6173264;23;20008;-66
2021/11/05 07:40:48;;;;;;;19.63;11.30;;;;;;;;;;6175655;23;20037;-66
2021/11/05 07:43:14;;;;;;;18.30;10.88;;;;;;;;;;6177162;23;20005;-66
2021/11/05 07:45:39;;;;;;;20.95;11.38;;;;;;;;;;6174578;23;20012;-66
2021/11/05 07:48:05;;;;;;;23.73;14.25;;;;;;;;;;6175038;23;20091;-66
2021/11/05 07:50:33;;;;;;;24.65;12.57;;;;;;;;;;6180072;23;20005;-67
2021/11/05 07:53:05;;;;;;;23.23;13.65;;;;;;;;;;6179749;23;20009;-66
2021/11/05 07:55:30;;;;;;;22.42;13.43;;;;;;;;;;6178207;23;20452;-67
2021/11/05 07:57:56;;;;;;;26.60;13.75;;;;;;;;;;6178531;23;20005;-67
2021/11/05 08:00:22;;;;;;;26.27;13.65;;;;;;;;;;6177758;23;20080;-66
2021/11/05 08:02:48;;;;;;;25.40;13.65;;;;;;;;;;6179370;23;20059;-66
2021/11/05 08:05:13;;;;;;;26.20;13.48;;;;;;;;;;6178474;23;20063;-66
2021/11/05 08:07:39;;;;;;;25.45;14.38;;;;;;;;;;6173849;23;20005;-66
2021/11/05 08:10:06;;;;;;;25.65;14.48;;;;;;;;;;6173436;23;20161;-66
2021/11/05 08:12:37;;;;;;;26.53;14.83;;;;;;;;;;6171297;23;20008;-66
2021/11/05 08:15:09;;;;;;;28.63;14.07;;;;;;;;;;6174535;23;20229;-66
2021/11/05 08:17:34;;;;;;;23.27;14.57;;;;;;;;;;6176191;23;20327;-66
2021/11/05 08:20:00;;;;;;;25.40;14.23;;;;;;;;;;6176728;23;20001;-66
2021/11/05 08:22:26;;;;;;;28.38;14.73;;;;;;;;;;6177142;23;20004;-66
2021/11/05 08:24:52;;;;;;;26.95;14.32;;;;;;;;;;6178740;23;20016;-66
2021/11/05 08:27:18;;;;;;;22.77;14.07;;;;;;;;;;6179285;23;20506;-66
2021/11/05 08:29:43;;;;;;;26.73;13.48;;;;;;;;;;6178211;23;20032;-66
2021/11/05 08:32:09;;;;;;;23.08;14.27;;;;;;;;;;6178493;23;20020;-66
2021/11/05 08:34:34;;;;;;;26.13;14.57;;;;;;;;;;6178640;23;20009;-66
2021/11/05 08:37:00;;;;;;;24.67;14.27;;;;;;;;;;6180884;23;20015;-66
2021/11/05 08:39:25;;;;;;;26.52;14.85;;;;;;;;;;6182009;23;20029;-66
2021/11/05 08:41:50;;;;;;;25.98;15.00;;;;;;;;;;6181942;23;20008;-66
2021/11/05 08:44:16;;;;;;;26.65;15.10;;;;;;;;;;6181587;23;20076;-66
2021/11/05 08:46:43;;;;;;;23.77;14.05;;;;;;;;;;6178284;23;20009;-66
2021/11/05 08:49:11;;;;;;;25.45;14.50;;;;;;;;;;6180576;23;20451;-66
2021/11/05 08:51:42;;;;;;;24.00;14.27;;;;;;;;;;6179052;23;19997;-66
2021/11/05 08:54:08;;;;;;;25.25;14.02;;;;;;;;;;6180445;23;20084;-66
2021/11/05 08:56:33;;;;;;;22.75;14.35;;;;;;;;;;6182529;23;20036;-66
2021/11/05 08:59:00;;;;;;;23.42;14.10;;;;;;;;;;6155611;23;20004;-66
2021/11/05 09:01:26;;;;;;;25.15;13.85;;;;;;;;;;6181031;23;20013;-65
2021/11/05 09:03:51;;;;;;;23.77;13.13;;;;;;;;;;6155355;23;20008;-66
2021/11/05 09:06:16;;;;;;;24.25;14.40;;;;;;;;;;6156752;23;20423;-66
2021/11/05 09:08:44;;;;;;;22.42;14.13;;;;;;;;;;6182176;23;20008;-66
2021/11/05 09:11:09;;;;;;;23.83;14.13;;;;;;;;;;6182474;23;20005;-66
2021/11/05 09:13:35;;;;;;;25.17;14.20;;;;;;;;;;6179448;23;20009;-66
2021/11/05 09:16:02;;;;;;;23.92;13.98;;;;;;;;;;6179478;23;20001;-66
2021/11/05 09:18:29;;;;;;;24.70;14.10;;;;;;;;;;6170155;23;20972;-66
2021/11/05 09:20:54;;;;;;;23.35;13.27;;;;;;;;;;6147012;23;20514;-66
2021/11/05 09:23:20;;;;;;;23.75;13.85;;;;;;;;;;6173392;23;20043;-66
2021/11/05 09:25:45;;;;;;;22.95;13.25;;;;;;;;;;6175419;23;20001;-66
2021/11/05 09:28:10;;;;;;;21.58;13.45;;;;;;;;;;6173950;23;20005;-66
2021/11/05 09:30:36;;;;;;;23.73;13.95;;;;;;;;;;6178204;23;20024;-66
2021/11/05 09:33:02;;;;;;;23.38;12.68;;;;;;;;;;6179284;23;20075;-66
2021/11/05 09:35:27;;;;;;;21.58;13.15;;;;;;;;;;6179492;23;20040;-66
2021/11/05 09:37:53;;;;;;;24.20;13.48;;;;;;;;;;6181892;23;20008;-66
2021/11/05 09:40:22;;;;;;;22.23;13.45;;;;;;;;;;6154714;23;20048;-66
2021/11/05 09:43:00;;;;;;;20.98;13.23;;;;;;;;;;6181650;23;20005;-66
2021/11/05 09:45:31;;;;;;;19.65;12.20;;;;;;;;;;6179893;23;20724;-66
2021/11/05 09:47:59;;;;;;;20.88;12.93;;;;;;;;;;6176788;23;20087;-66
2021/11/05 09:50:25;;;;;;;21.52;13.10;;;;;;;;;;6154176;23;20031;-66
2021/11/05 09:53:02;;;;;;;21.23;13.07;;;;;;;;;;6181206;23;20322;-66
2021/11/05 09:55:28;;;;;;;19.17;12.05;;;;;;;;;;6181162;23;20470;-65
2021/11/05 09:57:53;;;;;;;19.88;12.13;;;;;;;;;;6184440;23;20033;-67
2021/11/05 10:00:23;;;;;;;21.48;12.15;;;;;;;;;;6179439;23;20005;-65
2021/11/05 10:02:49;;;;;;;19.63;12.13;;;;;;;;;;6182671;23;20338;-66
2021/11/05 10:05:16;;;;;;;19.27;12.27;;;;;;;;;;6180020;23;20096;-65
2021/11/05 10:07:54;;;;;;;21.75;12.18;;;;;;;;;;6176849;23;20001;-65
2021/11/05 10:10:31;;;;;;;19.85;12.63;;;;;;;;;;6174140;23;20746;-65
2021/11/05 10:13:11;;;;;;;26.35;15.63;;;;;;;;;;6174303;23;20005;-65
2021/11/05 10:15:45;;;;;;;23.10;15.30;;;;;;;;;;6175822;23;20005;-66
2021/11/05 10:18:26;;;;;;;26.17;14.88;;;;;;;;;;6175053;23;20509;-65
2021/11/05 10:21:13;;;;;;;21.98;13.07;;;;;;;;;;6172599;23;20032;-65
2021/11/05 10:23:40;;;;;;;;;;;;;;;;;;6171387;23;20001;-65
2021/11/05 10:26:08;;;;;;;20.08;11.63;;;;;;;;;;6172009;23;19908;-66
2021/11/05 10:28:38;;;;;;;17.13;11.27;;;;;;;;;;6169732;23;20005;-66
2021/11/05 10:31:09;;;;;;;18.95;12.63;;;;;;;;;;6169701;23;20008;-66
2021/11/05 10:33:44;;;;;;;21.95;13.10;;;;;;;;;;6168775;23;20025;-66
2021/11/05 10:36:12;;;;;;;22.92;12.05;;;;;;;;;;6172346;23;20028;-66
2021/11/05 10:38:41;;;;;;;17.90;11.45;;;;;;;;;;6177806;23;20032;-66
2021/11/05 10:41:11;;;;;;;19.73;11.57;;;;;;;;;;6176086;23;20331;-66
2021/11/05 10:43:41;;;;;;;17.85;11.48;;;;;;;;;;6178338;23;20005;-66
2021/11/05 10:46:30;;;;;;;25.60;12.77;;;;;;;;;;6180906;23;20079;-66
2021/11/05 10:48:59;;;;;;;17.00;10.52;;;;;;;;;;6177945;23;20016;-66
2021/11/05 10:51:26;;;;;;;19.98;11.35;;;;;;;;;;6178678;23;19997;-65
2021/11/05 10:53:52;;;;;;;;;;;;;;;;;;6178644;23;20005;-64
2021/11/05 10:56:20;;;;;;;17.00;10.05;;;;;;;;;;6178308;23;19991;-64
2021/11/05 10:58:49;;;;;;;18.90;10.73;;;;;;;;;;6177823;23;20005;-64
2021/11/05 11:01:17;;;;;;;15.93;10.40;;;;;;;;;;6180881;23;20005;-64
2021/11/05 11:03:45;;;;;;;14.65;10.27;;;;;;;;;;6182082;23;20005;-64
2021/11/05 11:06:15;;;;;;;16.42;9.82;;;;;;;;;;6180582;23;20052;-64
2021/11/05 11:08:44;;;;;;;20.83;11.35;;;;;;;;;;6155067;23;20494;-64
2021/11/05 11:11:30;;;;;;;17.60;10.80;;;;;;;;;;6182553;23;20471;-64
2021/11/05 11:14:04;;;;;;;20.42;12.07;;;;;;;;;;6181006;23;20013;-64
2021/11/05 11:16:32;;;;;;;16.48;11.43;;;;;;;;;;6181972;23;20005;-65
2021/11/05 11:19:02;;;;;;;21.08;11.38;;;;;;;;;;6180053;23;20005;-64
2021/11/05 11:21:36;;;;;;;15.93;10.10;;;;;;;;;;6182398;23;20005;-64
2021/11/05 11:24:04;;;;;;;15.95;10.13;;;;;;;;;;6178357;23;20009;-65
2021/11/05 11:26:30;;;;;;;18.23;10.73;;;;;;;;;;6179712;23;20008;-65
2021/11/05 11:29:11;;;;;;;16.83;10.63;;;;;;;;;;6178078;23;20100;-65
2021/11/05 11:31:38;;;;;;;16.65;10.35;;;;;;;;;;6178524;23;20360;-65
2021/11/05 11:34:05;;;;;;;26.83;19.63;;;;;;;;;;6181594;23;20078;-65
2021/11/05 11:36:34;;;;;;;19.67;11.05;;;;;;;;;;6178604;23;20012;-65
2021/11/05 11:39:03;;;;;;;17.42;11.00;;;;;;;;;;6179474;23;20005;-65
2021/11/05 11:41:28;;;;;;;18.15;10.73;;;;;;;;;;6181605;23;20136;-65
2021/11/05 11:43:54;;;;;;;17.90;11.65;;;;;;;;;;6181600;23;20422;-65
2021/11/05 11:46:23;;;;;;;18.50;11.35;;;;;;;;;;6181021;23;20162;-65
2021/11/05 11:48:53;;;;;;;20.27;12.15;;;;;;;;;;6180728;23;20478;-65
2021/11/05 11:51:18;;;;;;;18.35;10.48;;;;;;;;;;6153102;23;20029;-65
2021/11/05 11:53:45;;;;;;;17.85;10.32;;;;;;;;;;6181479;23;20008;-65
2021/11/05 11:56:24;;;;;;;18.75;10.90;;;;;;;;;;6182035;23;20008;-65
2021/11/05 11:58:55;;;;;;;17.10;11.50;;;;;;;;;;6180055;23;20080;-65
2021/11/05 12:01:23;;;;;;;16.13;9.63;;;;;;;;;;6182543;23;20024;-65
2021/11/05 12:04:15;;;;;;;15.73;10.40;;;;;;;;;;6182423;23;20124;-65
2021/11/05 12:06:47;;;;;;;15.85;9.05;;;;;;;;;;6165788;23;20459;-65
2021/11/05 12:09:26;;;;;;;13.68;9.02;;;;;;;;;;6181804;23;20327;-65
2021/11/05 12:12:32;;;;;;;12.48;8.13;;;;;;;;;;6183212;23;20055;-66
2021/11/05 12:15:00;;;;;;;15.63;8.98;;;;;;;;;;6181335;23;20004;-66
2021/11/05 12:17:49;;;;;;;14.63;8.32;;;;;;;;;;6180740;23;20084;-66
2021/11/05 12:20:30;;;;;;;16.83;9.27;;;;;;;;;;6174602;23;20036;-66
2021/11/05 12:23:10;;;;;;;16.08;9.90;;;;;;;;;;6176969;23;20092;-66
2021/11/05 12:26:01;;;;;;;15.52;8.73;;;;;;;;;;6180530;23;20016;-66
2021/11/05 12:28:40;;;;;;;16.00;8.57;;;;;;;;;;6180711;23;19997;-66
2021/11/05 12:31:30;;;;;;;11.68;7.82;;;;;;;;;;6180634;23;20039;-66
2021/11/05 12:34:36;;;;;;;12.07;7.45;;;;;;;;;;6179428;23;20021;-66
2021/11/05 12:37:03;;;;;;;12.93;7.93;;;;;;;;;;6182510;23;19997;-66
2021/11/05 12:39:32;;;;;;;11.80;6.72;;;;;;;;;;6177580;23;20009;-66
2021/11/05 12:42:02;;;;;;;10.90;6.78;;;;;;;;;;6180307;23;20036;-66
2021/11/05 12:44:46;;;;;;;13.45;7.32;;;;;;;;;;6180570;23;20005;-66
2021/11/05 12:47:11;;;;;;;12.75;7.03;;;;;;;;;;6154321;23;20431;-66
2021/11/05 12:49:37;;;;;;;12.10;6.68;;;;;;;;;;6178144;23;20140;-66
2021/11/05 12:52:03;;;;;;;11.60;6.90;;;;;;;;;;6180341;23;20032;-66
2021/11/05 12:54:32;;;;;;;11.20;6.40;;;;;;;;;;6178372;23;20475;-66
2021/11/05 12:56:58;;;;;;;10.15;6.47;;;;;;;;;;6181431;23;20008;-66
2021/11/05 12:59:29;;;;;;;13.60;7.65;;;;;;;;;;6177376;23;20001;-65
2021/11/05 13:01:56;;;;;;;10.25;6.72;;;;;;;;;;6181394;23;20009;-65
2021/11/05 13:04:23;;;;;;;10.70;7.45;;;;;;;;;;6172500;23;20104;-66
2021/11/05 13:06:59;;;;;;;12.57;7.07;;;;;;;;;;6182977;23;20005;-66
2021/11/05 13:09:29;;;;;;;11.40;6.77;;;;;;;;;;6179999;23;20012;-66
2021/11/05 13:12:01;;;;;;;9.77;5.82;;;;;;;;;;6183188;23;20163;-66
2021/11/05 13:14:53;;;;;;;10.15;5.75;;;;;;;;;;6181338;23;20012;-66
2021/11/05 13:17:23;;;;;;;11.30;5.40;;;;;;;;;;6182094;23;20008;-66
2021/11/05 13:19:56;;;;;;;9.25;5.70;;;;;;;;;;6180761;23;20063;-66
2021/11/05 13:22:36;;;;;;;9.23;5.45;;;;;;;;;;6183208;23;20004;-66
2021/11/05 13:25:12;;;;;;;9.50;5.65;;;;;;;;;;6178850;23;20005;-66
2021/11/05 13:27:37;;;;;;;8.80;5.32;;;;;;;;;;6182302;23;20100;-66
2021/11/05 13:30:05;;;;;;;9.90;5.35;;;;;;;;;;6181013;23;20440;-66
2021/11/05 13:32:30;;;;;;;7.07;4.80;;;;;;;;;;6183446;23;20343;-66
2021/11/05 13:34:56;;;;;;;9.65;5.85;;;;;;;;;;6181658;23;20004;-66
2021/11/05 13:37:37;;;;;;;8.45;5.63;;;;;;;;;;6182055;23;20044;-66
2021/11/05 13:40:03;;;;;;;7.07;4.80;;;;;;;;;;6179726;23;20001;-66
2021/11/05 13:42:38;;;;;;;11.43;8.50;;;;;;;;;;6183828;23;20120;-66
2021/11/05 13:45:14;;;;;;;10.82;5.97;;;;;;;;;;6180148;23;20005;-66
2021/11/05 13:47:50;;;;;;;8.48;5.70;;;;;;;;;;6173029;23;20488;-66
2021/11/05 13:50:18;;;;;;;8.90;4.93;;;;;;;;;;6178064;23;20008;-66
2021/11/05 13:52:59;;;;;;;11.95;5.95;;;;;;;;;;6178738;23;20005;-66
2021/11/05 13:55:27;;;;;;;9.68;5.60;;;;;;;;;;6175587;23;20075;-66
2021/11/05 13:58:09;;;;;;;8.75;5.63;;;;;;;;;;6177436;23;20055;-66
2021/11/05 14:00:37;;;;;;;10.32;6.25;;;;;;;;;;6175461;23;20064;-65
2021/11/05 14:03:10;;;;;;;9.68;5.85;;;;;;;;;;6178048;23;20012;-65
2021/11/05 14:05:39;;;;;;;8.63;5.00;;;;;;;;;;6179716;23;20012;-64
2021/11/05 14:08:10;;;;;;;7.25;4.93;;;;;;;;;;6178400;23;20013;-64
2021/11/05 14:10:48;;;;;;;9.50;4.78;;;;;;;;;;6176970;23;20061;-64
2021/11/05 14:13:14;;;;;;;8.57;5.10;;;;;;;;;;6177718;23;20005;-65
2021/11/05 14:15:40;;;;;;;10.18;4.97;;;;;;;;;;6178552;23;20093;-64
2021/11/05 14:18:21;;;;;;;16.92;6.88;;;;;;;;;;6177254;23;20477;-65
2021/11/05 14:20:49;;;;;;;10.27;6.00;;;;;;;;;;6178225;23;20408;-64
2021/11/05 14:23:30;;;;;;;14.98;6.32;;;;;;;;;;6152148;23;20005;-64
2021/11/05 14:25:57;;;;;;;8.75;5.00;;;;;;;;;;6180081;23;20323;-64
2021/11/05 14:28:23;;;;;;;;;;;;;;;;;;6175276;23;20063;-64
2021/11/05 14:31:08;;;;;;;11.20;6.45;;;;;;;;;;6181134;23;20291;-64